Abilene Regional Airport Abilene US
ICAO: KABI
IATA: ABI
Category: Medium
Scheduled Services: Yes

Elevation: 1791 ft
TransAlt. 18000 ft.

Airport Communications:
APP/DEP:125
ATIS:118.25
GND:121.7
FORT WORTH RDO:122.65
TWR:120.1
UNICOM:122.95

KABI Zoom In..

Runways:

(A) RW 04 length 3679 ft width 100 ft
LOC 109.75 / hdg 44

(B) RW 17L length 7198 ft width 150 ft
LOC 109.75 / hdg 172

(C) RW 17R length 7203 ft width 150 ft
LOC 109.75 / hdg 172

(D) RW 22 length 3679 ft width 100 ft
LOC 109.75 / hdg 224

(E) RW 35L length 7203 ft width 150 ft
LOC 109.75 / hdg 352

(F) RW 35R length 7198 ft width 150 ft
ILS 110.30 / hdg 352

Location; KABI
Day. 22 / Time. 03.52 Zulu
* Altimeter: 29.91
* Temperature: 11° c. 51.8°f.
* Wind from: 270° Speed 12 kn.
Dewpoint: -15° c.
Visibility: 10 Statute Miles.
Clouds: Clear (automated report).

KABI 220352Z 27012KT 10SM CLR 11/M15 A2991 RMK AO2 PK WND 28026/0254 SLP116 T01061150


Wind From 270°
Speed 12 kn.

jpsM music video
CHECK IT OUT

jpsM - It Moves..

 
jpsmedia.com for Web Design  worldairports.se 2018   terms of use